Time;durP1;ratioP1;P1;durP2;ratioP2;P2;SDS_P1;SDS_P2;PMS_P1;PMS_P2;Temp;Humidity;BMP_temperature;BMP_pressure;BME280_temperature;BME280_humidity;BME280_pressure;Samples;Min_cycle;Max_cycle;Signal;HPM_P1;HPM_P2
2023/04/12 00:02:11;;;;;;;10.70;1.27;;;;;;;9.35;81.71;100437.13;5071394;28;20114;-76
2023/04/12 00:04:37;;;;;;;5.38;1.25;;;;;;;9.25;82.50;100436.44;5093537;28;20035;-76
2023/04/12 00:07:02;;;;;;;5.53;1.38;;;;;;;9.23;83.64;100426.25;5105565;28;20020;-75
2023/04/12 00:09:29;;;;;;;6.70;1.23;;;;;;;9.15;83.86;100421.03;5089372;28;20497;-75
2023/04/12 00:11:57;;;;;;;13.20;2.22;;;;;;;9.07;84.83;100413.25;5087973;28;20108;-76
2023/04/12 00:14:23;;;;;;;10.80;2.22;;;;;;;9.03;86.62;100407.59;5070929;28;20399;-75
2023/04/12 00:16:49;;;;;;;7.20;1.65;;;;;;;8.96;88.28;100411.75;5081669;28;20407;-76
2023/04/12 00:19:15;;;;;;;7.38;1.70;;;;;;;9.00;88.36;100401.91;5107121;27;20043;-76
2023/04/12 00:21:41;;;;;;;11.20;1.50;;;;;;;8.94;88.65;100380.88;5071019;28;20030;-75
2023/04/12 00:24:07;;;;;;;9.45;1.73;;;;;;;8.97;89.28;100374.59;5085834;27;20035;-76
2023/04/12 00:26:32;;;;;;;8.85;1.77;;;;;;;8.88;90.19;100368.56;5088491;28;20023;-76
2023/04/12 00:28:58;;;;;;;10.07;1.35;;;;;;;8.88;90.48;100365.97;5104047;27;20031;-76
2023/04/12 00:31:24;;;;;;;10.90;1.80;;;;;;;8.81;91.47;100361.59;5070382;28;20714;-76
2023/04/12 00:33:49;;;;;;;12.45;2.88;;;;;;;8.84;92.21;100363.88;5079749;28;20035;-76
2023/04/12 00:36:15;;;;;;;11.52;1.67;;;;;;;8.80;93.50;100363.38;5086674;28;20427;-76
2023/04/12 00:38:41;;;;;;;7.25;1.80;;;;;;;8.84;93.70;100350.94;5087730;28;20031;-76
2023/04/12 00:41:07;;;;;;;10.82;1.77;;;;;;;8.73;94.28;100344.25;5086890;28;20035;-76
2023/04/12 00:43:32;;;;;;;8.82;2.15;;;;;;;8.73;95.46;100342.47;5086662;28;20034;-76
2023/04/12 00:45:58;;;;;;;9.80;2.47;;;;;;;8.60;96.27;100342.09;5085378;28;20019;-76
2023/04/12 00:48:26;;;;;;;11.93;2.33;;;;;;;8.47;96.74;100344.28;5103213;28;20030;-76
2023/04/12 00:50:54;;;;;;;15.07;2.38;;;;;;;8.46;98.36;100335.72;5085639;28;20035;-77
2023/04/12 00:53:21;;;;;;;6.47;1.75;;;;;;;8.50;98.97;100326.72;5085134;28;20035;-76
2023/04/12 00:55:48;;;;;;;8.40;1.52;;;;;;;8.49;99.35;100324.28;5083843;28;20099;-76
2023/04/12 00:58:15;;;;;;;10.00;2.45;;;;;;;8.52;99.65;100308.47;5092067;28;20035;-77
2023/04/12 01:00:41;;;;;;;8.63;2.53;;;;;;;8.38;100.00;100305.47;5106477;28;20024;-77
2023/04/12 01:03:10;;;;;;;15.90;3.40;;;;;;;8.33;100.00;100294.78;5101070;28;20047;-77
2023/04/12 01:05:54;;;;;;;9.77;3.08;;;;;;;8.30;100.00;100284.75;5103213;27;20125;-76
2023/04/12 01:08:26;;;;;;;7.35;1.80;;;;;;;8.31;100.00;100288.16;5069147;28;20056;-76
2023/04/12 01:11:00;;;;;;;12.30;2.10;;;;;;;8.21;100.00;100279.69;5085174;28;20451;-76
2023/04/12 01:13:39;;;;;;;8.88;1.80;;;;;;;8.11;100.00;100277.22;5092891;27;20039;-76
2023/04/12 01:16:25;;;;;;;11.23;1.83;;;;;;;8.07;100.00;100270.75;5103108;28;20044;-77
2023/04/12 01:18:56;;;;;;;7.82;1.85;;;;;;;8.16;100.00;100260.31;5088105;28;20534;-76
2023/04/12 01:21:52;;;;;;;7.63;2.00;;;;;;;8.07;100.00;100255.25;5072701;28;20034;-76
2023/04/12 01:24:42;;;;;;;12.73;1.98;;;;;;;8.01;100.00;100250.69;5086797;28;20081;-76
2023/04/12 01:27:29;;;;;;;9.57;2.38;;;;;;;7.96;100.00;100236.44;5080781;28;20514;-76
2023/04/12 01:29:57;;;;;;;9.35;1.98;;;;;;;7.99;100.00;100231.00;5085529;28;20080;-76
2023/04/12 01:32:24;;;;;;;12.18;2.00;;;;;;;7.89;100.00;100232.88;5089713;28;20035;-76
2023/04/12 01:34:50;;;;;;;9.40;2.10;;;;;;;7.82;100.00;100223.28;5085328;28;20038;-76
2023/04/12 01:37:18;;;;;;;11.18;2.33;;;;;;;7.83;100.00;100224.91;5104307;28;20092;-76
2023/04/12 01:39:44;;;;;;;9.90;1.73;;;;;;;7.88;100.00;100213.19;5105651;27;20039;-76
2023/04/12 01:42:09;;;;;;;9.13;1.98;;;;;;;7.89;100.00;100201.06;5069008;28;20024;-76
2023/04/12 01:44:35;;;;;;;5.47;1.60;;;;;;;7.88;100.00;100191.72;5089693;28;20032;-76
2023/04/12 01:47:01;;;;;;;10.90;2.92;;;;;;;7.89;100.00;100183.00;5083487;28;20062;-76
2023/04/12 01:49:35;;;;;;;9.10;1.60;;;;;;;7.83;100.00;100181.03;5119155;27;20035;-77
2023/04/12 01:52:18;;;;;;;6.72;1.52;;;;;;;7.73;100.00;100176.78;5067502;28;20496;-76
2023/04/12 01:54:50;;;;;;;4.90;1.30;;;;;;;7.67;100.00;100166.28;5090626;28;20369;-76
2023/04/12 01:57:17;;;;;;;3.20;1.63;;;;;;;7.69;100.00;100157.41;5059265;28;20059;-76
2023/04/12 01:59:46;;;;;;;8.15;1.70;;;;;;;7.69;100.00;100154.84;5100801;28;20032;-76
2023/04/12 02:02:12;;;;;;;9.00;2.22;;;;;;;7.69;100.00;100146.28;5072363;28;20032;-76
2023/04/12 02:04:38;;;;;;;6.43;1.70;;;;;;;7.69;100.00;100143.72;5088020;28;20114;-76
2023/04/12 02:07:04;;;;;;;9.55;1.58;;;;;;;7.63;100.00;100136.56;5076818;28;20085;-76
2023/04/12 02:09:35;;;;;;;8.20;1.73;;;;;;;7.63;100.00;100133.97;5097404;28;20081;-76
2023/04/12 02:12:03;;;;;;;7.65;1.55;;;;;;;7.60;100.00;100129.94;5075730;28;20063;-76
2023/04/12 02:14:30;;;;;;;3.92;1.35;;;;;;;7.57;100.00;100115.59;5090002;28;20036;-76
2023/04/12 02:16:57;;;;;;;5.13;1.25;;;;;;;7.51;100.00;100116.19;5090904;28;20062;-76
2023/04/12 02:19:23;;;;;;;7.85;1.60;;;;;;;7.53;100.00;100114.25;5074625;28;20078;-76
2023/04/12 02:21:49;;;;;;;5.70;1.60;;;;;;;7.51;100.00;100113.59;5074824;28;20032;-76
2023/04/12 02:24:15;;;;;;;8.13;1.63;;;;;;;7.56;100.00;100105.41;5089798;28;20040;-76
2023/04/12 02:26:43;;;;;;;6.60;2.15;;;;;;;7.55;100.00;100099.44;5073766;28;20066;-75
2023/04/12 02:29:09;;;;;;;3.72;1.10;;;;;;;7.56;100.00;100095.91;5095703;27;20039;-76
2023/04/12 02:31:37;;;;;;;6.88;1.35;;;;;;;7.51;100.00;100080.06;5085659;28;20028;-76
2023/04/12 02:34:04;;;;;;;7.40;1.30;;;;;;;7.59;100.00;100069.78;5098737;28;20030;-76
2023/04/12 02:36:30;;;;;;;6.30;1.60;;;;;;;7.54;100.00;100069.44;5093972;27;20035;-75
2023/04/12 02:38:56;;;;;;;4.95;1.40;;;;;;;7.54;100.00;100061.69;5095948;27;20511;-76
2023/04/12 02:41:23;;;;;;;7.60;1.40;;;;;;;7.54;100.00;100064.28;5088540;28;20055;-76
2023/04/12 02:43:49;;;;;;;4.85;1.50;;;;;;;7.46;100.00;100055.69;5074169;28;20123;-76
2023/04/12 02:46:21;;;;;;;5.88;1.30;;;;;;;7.40;100.00;100039.06;5075180;28;20035;-76
2023/04/12 02:48:50;;;;;;;3.72;1.13;;;;;;;7.35;100.00;100031.78;5073766;28;20044;-76
2023/04/12 02:51:17;;;;;;;11.00;1.77;;;;;;;7.33;100.00;100018.25;5088894;28;20047;-76
2023/04/12 02:53:46;;;;;;;3.20;1.10;;;;;;;7.40;100.00;100016.66;5089446;28;20035;-76
2023/04/12 02:56:20;;;;;;;4.47;1.20;;;;;;;7.32;100.00;100005.50;5090889;28;20020;-77
2023/04/12 02:58:51;;;;;;;2.92;1.15;;;;;;;7.33;100.00;99994.22;5101186;28;20112;-77
2023/04/12 03:01:30;;;;;;;5.88;1.40;;;;;;;7.34;100.00;99990.66;5077288;28;20028;-78
2023/04/12 03:04:21;;;;;;;7.43;1.55;;;;;;;7.36;100.00;99994.69;5084723;28;20045;-78
2023/04/12 03:06:52;;;;;;;4.82;1.98;;;;;;;7.37;100.00;99972.31;5090820;28;20126;-77
2023/04/12 03:09:25;;;;;;;6.68;1.73;;;;;;;7.31;100.00;99960.84;5091226;28;20043;-77
2023/04/12 03:11:54;;;;;;;8.73;1.90;;;;;;;7.29;100.00;99960.19;5089103;28;20032;-78
2023/04/12 03:14:19;;;;;;;4.75;1.58;;;;;;;7.32;100.00;99944.38;5089632;27;20077;-78
2023/04/12 03:16:45;;;;;;;5.70;1.58;;;;;;;7.32;100.00;99939.22;5088509;28;20027;-76
2023/04/12 03:19:15;;;;;;;11.07;1.90;;;;;;;7.30;100.00;99930.84;5075893;28;20127;-77
2023/04/12 03:21:46;;;;;;;8.15;1.85;;;;;;;7.36;100.00;99932.78;5090664;28;20028;-77
2023/04/12 03:24:12;;;;;;;3.88;1.95;;;;;;;7.36;100.00;99926.84;5088156;28;20790;-76
2023/04/12 03:26:38;;;;;;;8.15;1.88;;;;;;;7.40;100.00;99920.41;5077287;28;20532;-78
2023/04/12 03:29:12;;;;;;;5.22;1.80;;;;;;;7.31;100.00;99905.84;5070779;28;20036;-77
2023/04/12 03:31:39;;;;;;;8.50;2.95;;;;;;;7.39;100.00;99898.97;5088052;28;20024;-77
2023/04/12 03:34:07;;;;;;;5.28;1.88;;;;;;;7.44;100.00;99888.19;5092831;28;20083;-77
2023/04/12 03:36:35;;;;;;;7.82;2.28;;;;;;;7.36;100.00;99890.72;5094337;28;20024;-77
2023/04/12 03:39:08;;;;;;;4.93;1.75;;;;;;;7.37;100.00;99884.63;5070873;28;21715;-78
2023/04/12 03:41:36;;;;;;;4.00;1.73;;;;;;;7.36;100.00;99883.00;5096991;28;20055;-77
2023/04/12 03:44:03;;;;;;;4.93;2.00;;;;;;;7.38;100.00;99871.56;5071245;28;20032;-76
2023/04/12 03:46:30;;;;;;;6.40;3.00;;;;;;;7.41;100.00;99855.75;5088497;28;20032;-77
2023/04/12 03:49:00;;;;;;;4.40;1.88;;;;;;;7.37;100.00;99851.88;5093368;28;20040;-77
2023/04/12 03:51:29;;;;;;;5.43;1.80;;;;;;;7.40;100.00;99840.44;5080950;28;20027;-76
2023/04/12 03:54:01;;;;;;;7.05;1.92;;;;;;;7.30;100.00;99852.69;5088521;28;20085;-77
2023/04/12 03:56:27;;;;;;;8.35;1.88;;;;;;;7.30;100.00;99834.63;5091259;28;20020;-76
2023/04/12 03:58:56;;;;;;;5.57;1.48;;;;;;;7.34;100.00;99833.34;5086938;28;20071;-78
2023/04/12 04:01:22;;;;;;;12.77;2.72;;;;;;;7.40;100.00;99840.44;5091131;28;20023;-78
2023/04/12 04:03:49;;;;;;;7.57;1.70;;;;;;;7.39;100.00;99833.69;5088292;28;20110;-76
2023/04/12 04:06:18;;;;;;;7.40;2.33;;;;;;;7.38;100.00;99824.31;5091098;28;20039;-77
2023/04/12 04:08:44;;;;;;;6.55;1.75;;;;;;;7.37;100.00;99820.16;5092224;27;20408;-76
2023/04/12 04:11:11;;;;;;;4.85;1.60;;;;;;;7.28;100.00;99821.88;5104370;28;21214;-76
2023/04/12 04:13:40;;;;;;;4.60;2.20;;;;;;;7.29;100.00;99810.63;5087421;28;20028;-77
2023/04/12 04:16:11;;;;;;;3.45;1.63;;;;;;;7.30;100.00;99803.69;5088644;28;20023;-76
2023/04/12 04:18:39;;;;;;;3.05;1.98;;;;;;;7.25;100.00;99805.91;5117156;27;20063;-76
2023/04/12 04:21:07;;;;;;;5.50;1.88;;;;;;;7.28;100.00;99800.47;5088053;28;20035;-77
2023/04/12 04:23:37;;;;;;;7.30;2.42;;;;;;;7.23;100.00;99808.66;5087512;27;20572;-77
2023/04/12 04:26:05;;;;;;;7.38;1.95;;;;;;;7.29;100.00;99799.47;5086014;28;20028;-78
2023/04/12 04:28:32;;;;;;;6.90;2.05;;;;;;;7.32;100.00;99783.69;5099243;27;20027;-77
2023/04/12 04:31:02;;;;;;;3.03;1.73;;;;;;;7.31;100.00;99787.22;5072924;28;20039;-77
2023/04/12 04:33:32;;;;;;;7.78;1.95;;;;;;;7.21;100.00;99782.22;5100116;27;20038;-77
2023/04/12 04:36:02;;;;;;;6.45;1.80;;;;;;;7.22;100.00;99778.69;5071507;28;20039;-78
2023/04/12 04:38:31;;;;;;;9.60;2.42;;;;;;;7.27;100.00;99776.44;5087810;27;20054;-76
2023/04/12 04:41:05;;;;;;;6.97;2.03;;;;;;;7.21;100.00;99777.06;5092231;28;20024;-77
2023/04/12 04:43:52;;;;;;;5.53;2.13;;;;;;;7.17;100.00;99770.63;5107180;27;20061;-78
2023/04/12 04:46:22;;;;;;;6.13;2.20;;;;;;;7.22;100.00;99768.38;5071731;28;20027;-76
2023/04/12 04:48:48;;;;;;;13.13;2.83;;;;;;;7.17;100.00;99766.25;5088593;28;20039;-77
2023/04/12 04:51:14;;;;;;;5.50;1.98;;;;;;;7.19;100.00;99768.69;5090798;28;20464;-76
2023/04/12 04:53:40;;;;;;;8.10;2.72;;;;;;;7.11;100.00;99769.47;5073341;28;20019;-78
2023/04/12 04:56:10;;;;;;;8.40;2.60;;;;;;;7.18;100.00;99761.94;5087700;28;20047;-75
2023/04/12 04:58:36;;;;;;;9.45;3.20;;;;;;;7.09;100.00;99755.16;5072669;28;20035;-78
2023/04/12 05:01:04;;;;;;;5.10;2.45;;;;;;;7.09;100.00;99755.16;5075185;28;20397;-78
2023/04/12 05:03:32;;;;;;;4.80;2.88;;;;;;;7.14;100.00;99747.72;5088015;28;20024;-77
2023/04/12 05:06:00;;;;;;;8.23;3.40;;;;;;;7.14;100.00;99745.16;5089963;28;20024;-79
2023/04/12 05:08:27;;;;;;;8.40;2.70;;;;;;;7.12;100.00;99747.91;5117748;27;20370;-76
2023/04/12 05:10:54;;;;;;;8.10;2.65;;;;;;;7.11;100.00;99745.47;5102137;28;20043;-77
2023/04/12 05:13:22;;;;;;;7.47;2.72;;;;;;;7.04;100.00;99734.97;5087047;28;20423;-76
2023/04/12 05:15:48;;;;;;;9.57;2.90;;;;;;;6.97;100.00;99736.59;5087678;27;20041;-78
2023/04/12 05:18:14;;;;;;;6.80;3.15;;;;;;;7.05;100.00;99735.81;5104366;27;20070;-78
2023/04/12 05:20:40;;;;;;;9.57;3.08;;;;;;;7.12;100.00;99735.00;5070437;28;20047;-77
2023/04/12 05:23:06;;;;;;;8.50;2.92;;;;;;;7.06;100.00;99727.91;5073152;28;20034;-77
2023/04/12 05:25:34;;;;;;;13.55;3.40;;;;;;;7.14;100.00;99725.34;5071064;28;20035;-76
2023/04/12 05:28:12;;;;;;;6.88;2.80;;;;;;;7.06;100.00;99719.38;5070470;27;20024;-79
2023/04/12 05:30:39;;;;;;;5.53;2.83;;;;;;;7.09;100.00;99719.84;5118823;27;20035;-77
2023/04/12 05:33:06;;;;;;;10.07;3.25;;;;;;;7.06;100.00;99709.84;5075521;28;20401;-78
2023/04/12 05:35:34;;;;;;;8.00;3.00;;;;;;;7.12;100.00;99706.66;5086958;28;20039;-79
2023/04/12 05:38:00;;;;;;;5.63;3.08;;;;;;;7.15;100.00;99701.16;5088679;28;20402;-78
2023/04/12 05:40:26;;;;;;;4.20;2.67;;;;;;;7.16;100.00;99699.41;5081853;28;20035;-80
2023/04/12 05:42:53;;;;;;;8.15;2.75;;;;;;;7.17;100.00;99696.66;5071827;28;20024;-78
2023/04/12 05:45:18;;;;;;;7.68;3.50;;;;;;;7.12;100.00;99698.09;5065739;28;20043;-77
2023/04/12 05:47:44;;;;;;;8.27;2.78;;;;;;;7.09;100.00;99693.28;5087895;28;20096;-77
2023/04/12 05:50:10;;;;;;;8.02;3.28;;;;;;;7.05;100.00;99681.69;5088282;28;20043;-78
2023/04/12 05:52:36;;;;;;;18.35;3.25;;;;;;;7.07;100.00;99683.13;5072065;28;20031;-77
2023/04/12 05:55:04;;;;;;;11.68;2.95;;;;;;;7.13;100.00;99679.88;5087555;28;20118;-79
2023/04/12 05:57:30;;;;;;;8.65;2.88;;;;;;;7.14;100.00;99670.38;5071469;28;20404;-76
2023/04/12 05:59:56;;;;;;;8.10;3.30;;;;;;;7.11;100.00;99678.44;5090482;28;20032;-77
2023/04/12 06:02:24;;;;;;;13.27;3.97;;;;;;;7.06;100.00;99678.91;5085875;28;20042;-76
2023/04/12 06:04:51;;;;;;;10.30;3.13;;;;;;;7.12;100.00;99677.47;5084788;28;20028;-77
2023/04/12 06:07:18;;;;;;;7.00;3.92;;;;;;;7.09;100.00;99668.28;5070830;28;20772;-78
2023/04/12 06:09:44;;;;;;;10.50;3.55;;;;;;;7.16;100.00;99671.03;5087271;28;20035;-78
2023/04/12 06:12:10;;;;;;;9.85;2.95;;;;;;;7.18;100.00;99672.50;5085815;28;20028;-77
2023/04/12 06:14:35;;;;;;;13.15;3.30;;;;;;;7.18;100.00;99669.91;5101703;27;20043;-77
2023/04/12 06:17:01;;;;;;;11.82;4.00;;;;;;;7.25;100.00;99671.84;5103908;28;20077;-79
2023/04/12 06:19:27;;;;;;;9.73;4.00;;;;;;;7.21;100.00;99661.88;5067967;28;20044;-77
2023/04/12 06:21:52;;;;;;;10.48;4.15;;;;;;;7.17;100.00;99654.59;5086835;28;20024;-78
2023/04/12 06:24:19;;;;;;;7.90;4.45;;;;;;;7.27;100.00;99657.00;5087886;28;20035;-77
2023/04/12 06:26:46;;;;;;;9.40;3.67;;;;;;;7.24;100.00;99652.19;5091331;28;20097;-78
2023/04/12 06:29:12;;;;;;;10.13;3.80;;;;;;;7.24;100.00;99647.03;5086508;28;20500;-78
2023/04/12 06:31:37;;;;;;;8.73;4.07;;;;;;;7.29;100.00;99643.00;5092111;28;20030;-79
2023/04/12 06:34:03;;;;;;;13.75;4.53;;;;;;;7.35;100.00;99647.50;5091458;28;20031;-77
2023/04/12 06:36:29;;;;;;;8.55;4.00;;;;;;;7.29;100.00;99645.59;5103883;28;20023;-78
2023/04/12 06:38:55;;;;;;;16.27;5.40;;;;;;;7.33;100.00;99633.97;5093035;28;20092;-78
2023/04/12 06:41:20;;;;;;;9.23;4.18;;;;;;;7.40;100.00;99623.78;5089669;28;20136;-78
2023/04/12 06:43:58;;;;;;;9.43;4.10;;;;;;;7.31;100.00;99620.44;5070727;28;20492;-79
2023/04/12 06:46:26;;;;;;;17.30;6.13;;;;;;;7.35;100.00;99608.81;5103320;28;20065;-77
2023/04/12 06:48:52;;;;;;;12.05;4.80;;;;;;;7.39;100.00;99611.88;5072290;28;20052;-78
2023/04/12 06:51:17;;;;;;;10.48;5.18;;;;;;;7.44;100.00;99607.03;5121069;27;20036;-78
2023/04/12 06:53:43;;;;;;;11.10;4.60;;;;;;;7.41;100.00;99615.88;5109979;27;20079;-77
2023/04/12 06:56:08;;;;;;;11.55;4.22;;;;;;;7.48;100.00;99608.31;5115189;27;20038;-78
2023/04/12 06:58:34;;;;;;;10.50;4.93;;;;;;;7.48;100.00;99605.72;5092865;28;20034;-79
2023/04/12 07:01:06;;;;;;;11.48;4.28;;;;;;;7.48;100.00;99597.16;5092515;28;20031;-78
2023/04/12 07:03:34;;;;;;;8.50;3.83;;;;;;;7.54;100.00;99597.31;5087858;28;20092;-79
2023/04/12 07:06:01;;;;;;;14.57;4.45;;;;;;;7.52;100.00;99586.38;5110192;28;20038;-78
2023/04/12 07:08:31;;;;;;;11.50;5.07;;;;;;;7.62;100.00;99585.38;5093899;28;20042;-78
2023/04/12 07:10:56;;;;;;;10.88;4.93;;;;;;;7.64;100.00;99593.75;5080572;27;20393;-79
2023/04/12 07:13:22;;;;;;;8.55;5.50;;;;;;;7.66;100.00;99581.50;5100769;27;20046;-78
2023/04/12 07:15:49;;;;;;;9.18;5.20;;;;;;;7.68;100.00;99587.28;5096828;27;20728;-77
2023/04/12 07:18:15;;;;;;;12.15;5.60;;;;;;;7.69;100.00;99581.16;5097048;28;20043;-79
2023/04/12 07:20:40;;;;;;;9.38;5.05;;;;;;;7.69;100.00;99581.97;5094138;28;20032;-80
2023/04/12 07:23:05;;;;;;;8.52;4.80;;;;;;;7.64;100.00;99581.66;5112801;28;20112;-80
2023/04/12 07:25:31;;;;;;;10.82;4.78;;;;;;;7.68;100.00;99574.38;5092935;28;20039;-79
2023/04/12 07:27:56;;;;;;;10.13;4.55;;;;;;;7.70;100.00;99564.69;5113601;27;20601;-79
2023/04/12 07:30:22;;;;;;;9.10;4.57;;;;;;;7.75;100.00;99559.84;5080045;27;20049;-78
2023/04/12 07:32:47;;;;;;;11.23;4.97;;;;;;;7.82;100.00;99555.63;5077149;28;20028;-78
2023/04/12 07:35:13;;;;;;;9.98;4.85;;;;;;;7.77;100.00;99550.16;5094614;28;20397;-79
2023/04/12 07:37:39;;;;;;;9.52;4.53;;;;;;;7.82;100.00;99549.66;5111700;28;20028;-78
2023/04/12 07:40:05;;;;;;;11.88;4.50;;;;;;;7.77;100.00;99548.38;5112959;27;20097;-78
2023/04/12 07:42:31;;;;;;;8.77;4.57;;;;;;;7.78;100.00;99555.16;5092649;28;20031;-79
2023/04/12 07:44:57;;;;;;;11.77;5.03;;;;;;;7.80;100.00;99562.75;5092868;28;20039;-80
2023/04/12 07:47:22;;;;;;;12.10;5.13;;;;;;;7.84;100.00;99566.59;5097901;28;20030;-81
2023/04/12 07:49:48;;;;;;;9.45;4.07;;;;;;;7.95;100.00;99561.06;5106077;27;20032;-77
2023/04/12 07:52:13;;;;;;;8.20;4.15;;;;;;;7.93;100.00;99557.84;5089198;28;20031;-78
2023/04/12 07:54:39;;;;;;;10.68;4.57;;;;;;;7.94;100.00;99559.44;5076190;28;20066;-78
2023/04/12 07:57:04;;;;;;;6.95;4.78;;;;;;;7.97;100.00;99559.09;5092367;27;20534;-78
2023/04/12 07:59:30;;;;;;;11.13;3.65;;;;;;;8.02;100.00;99553.41;5104573;28;20043;-78
2023/04/12 08:01:56;;;;;;;10.52;4.53;;;;;;;7.96;100.00;99547.16;5095344;28;20027;-79
2023/04/12 08:04:22;;;;;;;8.77;3.50;;;;;;;7.97;100.00;99548.78;5093666;28;20221;-78
2023/04/12 08:06:47;;;;;;;11.73;4.07;;;;;;;8.05;100.00;99547.13;5094823;28;20032;-79
2023/04/12 08:09:13;;;;;;;7.22;3.60;;;;;;;8.06;100.00;99546.16;5094098;27;20027;-79
2023/04/12 08:11:38;;;;;;;7.80;3.15;;;;;;;8.16;100.00;99549.34;5093391;28;20522;-78
2023/04/12 08:14:04;;;;;;;9.38;3.95;;;;;;;8.17;100.00;99538.84;5091360;28;20046;-78
2023/04/12 08:16:31;;;;;;;6.85;3.55;;;;;;;8.17;100.00;99538.00;5091316;28;20485;-78
2023/04/12 08:18:56;;;;;;;5.28;3.33;;;;;;;8.32;100.00;99533.72;5064578;28;20547;-78
2023/04/12 08:21:22;;;;;;;5.95;3.30;;;;;;;8.31;100.00;99536.50;5077429;28;20035;-79
2023/04/12 08:23:49;;;;;;;5.05;3.03;;;;;;;8.33;100.00;99537.91;5075667;28;20035;-81
2023/04/12 08:26:16;;;;;;;12.77;2.83;;;;;;;8.28;100.00;99542.78;5096699;28;20047;-78
2023/04/12 08:28:41;;;;;;;4.53;2.70;;;;;;;8.32;100.00;99532.91;5109126;27;20023;-79
2023/04/12 08:31:07;;;;;;;4.35;2.80;;;;;;;8.36;100.00;99537.59;5105576;27;20089;-78
2023/04/12 08:33:33;;;;;;;5.30;2.17;;;;;;;8.33;100.00;99532.75;5092281;28;21432;-78
2023/04/12 08:35:58;;;;;;;4.05;2.20;;;;;;;8.31;100.00;99531.31;5110035;27;20110;-79
2023/04/12 08:38:24;;;;;;;4.38;2.08;;;;;;;8.40;100.00;99535.47;5080303;28;20032;-78
2023/04/12 08:40:50;;;;;;;3.47;1.90;;;;;;;8.38;100.00;99534.81;5077185;27;20044;-79
2023/04/12 08:43:17;;;;;;;4.82;1.83;;;;;;;8.35;100.00;99538.53;5094662;28;20031;-81
2023/04/12 08:45:43;;;;;;;4.07;1.65;;;;;;;8.38;100.00;99539.97;5075984;28;20039;-79
2023/04/12 08:48:09;;;;;;;3.17;1.85;;;;;;;8.33;100.00;99545.66;5097811;28;20028;-79
2023/04/12 08:50:35;;;;;;;4.45;2.33;;;;;;;8.38;100.00;99545.97;5090005;28;20091;-79
2023/04/12 08:53:01;;;;;;;4.82;2.38;;;;;;;8.54;100.00;99544.25;5107713;27;20047;-80
2023/04/12 08:55:27;;;;;;;5.50;2.55;;;;;;;8.52;100.00;99548.81;5072706;28;20044;-78
2023/04/12 08:57:57;;;;;;;4.20;2.10;;;;;;;8.62;100.00;99540.81;5075475;28;20038;-79
2023/04/12 09:00:23;;;;;;;7.65;2.20;;;;;;;8.59;100.00;99544.56;5087451;28;20115;-81
2023/04/12 09:02:49;;;;;;;4.38;2.42;;;;;;;8.56;100.00;99543.09;5120034;27;20043;-80
2023/04/12 09:05:15;;;;;;;7.80;2.50;;;;;;;8.63;100.00;99548.41;5077103;27;20039;-79
2023/04/12 09:07:41;;;;;;;3.00;2.47;;;;;;;8.69;100.00;99550.28;5109647;28;20054;-80
2023/04/12 09:10:07;;;;;;;3.25;1.60;;;;;;;8.86;100.00;99537.22;5091816;28;20110;-79
2023/04/12 09:12:32;;;;;;;2.35;1.80;;;;;;;9.04;100.00;99523.94;5088484;28;20545;-80
2023/04/12 09:15:04;;;;;;;4.00;2.00;;;;;;;9.23;100.00;99532.97;5086289;28;20031;-79
2023/04/12 09:17:32;;;;;;;3.97;1.67;;;;;;;9.22;100.00;99526.22;5073082;28;20477;-78
2023/04/12 09:19:58;;;;;;;4.60;2.70;;;;;;;9.26;100.00;99527.47;5083859;28;20083;-80
2023/04/12 09:22:38;;;;;;;6.22;3.20;;;;;;;9.22;100.00;99524.41;5072493;28;20027;-79
2023/04/12 09:25:04;;;;;;;7.68;4.40;;;;;;;9.30;100.00;99528.69;5072219;28;20408;-79
2023/04/12 09:27:48;;;;;;;6.75;2.67;;;;;;;9.24;100.00;99527.63;5093205;28;20028;-80
2023/04/12 09:30:15;;;;;;;20.10;12.07;;;;;;;9.30;100.00;99532.09;5076759;27;20054;-80
2023/04/12 09:32:41;;;;;;;32.13;15.18;;;;;;;9.28;100.00;99521.09;5092093;28;20031;-81
2023/04/12 09:35:07;;;;;;;12.35;6.40;;;;;;;9.50;100.00;99519.41;5091526;28;20096;-80
2023/04/12 09:37:32;;;;;;;19.25;11.10;;;;;;;9.77;100.00;99526.72;5096105;28;20032;-80
2023/04/12 09:40:07;;;;;;;4.97;2.90;;;;;;;9.91;100.00;99518.13;5077051;28;21858;-81
2023/04/12 09:42:34;;;;;;;5.32;2.47;;;;;;;10.01;100.00;99515.22;5078714;28;20505;-80
2023/04/12 09:45:17;;;;;;;3.67;1.55;;;;;;;10.33;100.00;99501.81;5110768;27;20119;-80
2023/04/12 09:47:42;;;;;;;4.25;1.45;;;;;;;10.92;100.00;99497.28;5092859;28;20031;-81
2023/04/12 09:50:19;;;;;;;3.67;2.65;;;;;;;11.23;100.00;99493.47;5096988;28;20031;-80
2023/04/12 09:52:45;;;;;;;4.07;3.00;;;;;;;11.49;100.00;99498.78;5094010;28;20031;-80
2023/04/12 09:55:12;;;;;;;3.83;2.42;;;;;;;11.80;100.00;99496.72;5091688;28;20092;-79
2023/04/12 09:57:41;;;;;;;4.15;2.15;;;;;;;11.70;100.00;99489.28;5108807;28;20023;-79
2023/04/12 10:00:15;;;;;;;4.10;2.65;;;;;;;11.59;100.00;99490.66;5071146;28;20054;-78
2023/04/12 10:02:42;;;;;;;2.70;2.20;;;;;;;11.29;100.00;99492.72;5092941;28;20038;-79
2023/04/12 10:05:14;;;;;;;5.28;2.28;;;;;;;11.35;100.00;99489.34;5101221;28;20127;-80
2023/04/12 10:07:41;;;;;;;4.55;2.03;;;;;;;11.61;100.00;99490.44;5069509;28;20028;-79
2023/04/12 10:10:07;;;;;;;5.00;2.50;;;;;;;11.96;100.00;99491.19;5082837;28;20032;-79
2023/04/12 10:12:35;;;;;;;5.57;2.58;;;;;;;11.90;100.00;99494.56;5088206;28;20027;-78
2023/04/12 10:15:06;;;;;;;3.78;2.00;;;;;;;11.73;99.38;99495.88;5087203;28;20089;-77
2023/04/12 10:17:33;;;;;;;2.83;2.17;;;;;;;11.53;98.90;99496.63;5104736;28;20088;-79
2023/04/12 10:20:00;;;;;;;5.60;2.38;;;;;;;11.30;100.00;99497.72;5107307;28;20515;-79
2023/04/12 10:22:26;;;;;;;7.72;2.17;;;;;;;10.90;98.53;99499.25;5110197;28;20028;-79
2023/04/12 10:24:51;;;;;;;4.18;1.67;;;;;;;10.95;99.04;99511.69;5072272;28;20966;-78
2023/04/12 10:27:25;;;;;;;4.47;1.58;;;;;;;10.65;96.10;99514.44;5098284;28;20102;-79
2023/04/12 10:29:50;;;;;;;7.18;1.33;;;;;;;10.67;97.29;99515.84;5073688;27;20485;-79
2023/04/12 10:32:21;;;;;;;5.88;1.35;;;;;;;10.77;97.44;99522.50;5078154;27;20034;-79
2023/04/12 10:34:55;;;;;;;5.57;2.08;;;;;;;10.75;98.58;99524.50;5089884;27;20051;-78
2023/04/12 10:37:21;;;;;;;5.65;2.33;;;;;;;10.61;97.89;99526.19;5109061;27;20034;-80
2023/04/12 10:39:54;;;;;;;9.02;2.63;;;;;;;10.56;97.24;99521.53;5097579;28;20032;-79
2023/04/12 10:42:23;;;;;;;10.25;1.88;;;;;;;10.63;96.89;99526.78;5111535;27;20035;-80
2023/04/12 10:44:51;;;;;;;5.05;1.70;;;;;;;10.58;96.43;99522.16;5097033;28;20035;-79
2023/04/12 10:47:48;;;;;;;4.70;1.50;;;;;;;10.73;96.81;99523.88;5095487;27;20194;-80
2023/04/12 10:50:23;;;;;;;8.65;3.60;;;;;;;10.83;97.67;99516.56;5074614;28;20042;-79
2023/04/12 10:53:12;;;;;;;94.45;33.05;;;;;;;10.91;96.08;99512.03;5092855;28;20957;-79
2023/04/12 10:55:43;;;;;;;32.33;11.95;;;;;;;11.09;94.86;99521.94;5102958;27;20042;-79
2023/04/12 10:58:10;;;;;;;12.10;3.75;;;;;;;11.17;95.02;99520.19;5081792;28;20031;-79
2023/04/12 11:00:54;;;;;;;20.27;7.90;;;;;;;11.39;94.02;99523.50;5095460;28;20413;-79
2023/04/12 11:03:20;;;;;;;37.42;17.90;;;;;;;11.43;92.59;99522.13;5094018;28;20028;-78
2023/04/12 11:06:03;;;;;;;16.88;7.18;;;;;;;11.72;91.08;99515.06;5080958;28;20035;-78
2023/04/12 11:08:47;;;;;;;11.32;2.00;;;;;;;12.09;88.71;99518.97;5113986;27;20051;-79
2023/04/12 11:11:25;;;;;;;7.22;1.98;;;;;;;12.10;87.52;99523.19;5095486;27;20084;-78
2023/04/12 11:13:55;;;;;;;7.75;2.13;;;;;;;12.15;85.39;99525.19;5087206;28;20409;-78
2023/04/12 11:16:20;;;;;;;8.98;3.38;;;;;;;12.37;86.19;99531.03;5073985;28;20027;-79
2023/04/12 11:18:46;;;;;;;8.82;3.40;;;;;;;12.56;86.25;99537.25;5093477;27;22735;-78
2023/04/12 11:21:11;;;;;;;9.02;3.55;;;;;;;12.68;87.11;99540.03;5111999;27;20039;-78
2023/04/12 11:23:38;;;;;;;17.92;8.80;;;;;;;12.65;84.37;99534.25;5098828;27;20036;-78
2023/04/12 11:26:04;;;;;;;8.90;4.20;;;;;;;12.53;82.89;99529.84;5118461;27;20114;-79
2023/04/12 11:28:30;;;;;;;11.35;5.50;;;;;;;12.55;85.57;99526.03;5092555;27;20102;-79
2023/04/12 11:30:56;;;;;;;13.60;4.60;;;;;;;12.53;81.64;99520.25;5116607;27;20031;-79
2023/04/12 11:33:30;;;;;;;21.98;6.82;;;;;;;12.52;80.19;99516.03;5100969;27;20063;-81
2023/04/12 11:35:56;;;;;;;10.25;2.63;;;;;;;12.48;80.21;99506.25;5076887;28;20455;-79